This is the latest recevied weather packets stored in our database for station/object IW2LSY-11. If no packets are shown the sender has not sent any weather packets the latest 10 day(s).
| Time | Temp. | Humidity | Pressure | Rain* | Wind** | Luminosity | Snow |
|---|---|---|---|---|---|---|---|
| 1777439413 | 13.33° C | 96% | 1018.4 hPa | - | - | 380 W/m² | - |
| 1777438813 | 13.33° C | 98% | 1018.3 hPa | - | - | 380 W/m² | - |
| 1777438213 | 12.78° C | 99% | 1018.2 hPa | - | - | 381 W/m² | - |
| 1777437613 | 12.78° C | 10% | - | - | - | 381 W/m² | - |
| 1777437013 | 12.78° C | 10% | - | - | - | 381 W/m² | - |
| 1777436412 | 13.89° C | 94% | 1018.3 hPa | - | - | 382 W/m² | - |
| 1777435813 | 13.33° C | 97% | 1018.4 hPa | - | - | 383 W/m² | - |
| 1777435213 | 13.33° C | 10% | - | - | - | 383 W/m² | - |
| 1777434613 | 13.89° C | 94% | 1018.6 hPa | - | - | 383 W/m² | - |
| 1777434013 | 13.89° C | 97% | 1018.6 hPa | - | - | 384 W/m² | - |
| 1777433414 | 13.33° C | 94% | 1018.6 hPa | - | - | 384 W/m² | - |
| 1777432813 | 13.89° C | 91% | 1018.6 hPa | - | - | 385 W/m² | - |
| 1777432214 | 13.89° C | 95% | 1018.5 hPa | - | - | 385 W/m² | - |
| 1777431614 | 13.33° C | 97% | 1018.5 hPa | - | - | 385 W/m² | - |
| 1777431013 | 13.89° C | 94% | 1018.5 hPa | - | - | 386 W/m² | - |
| 1777430414 | 13.89° C | 94% | 1018.5 hPa | - | - | 386 W/m² | - |
| 1777429814 | 13.89° C | 98% | 1018.5 hPa | - | - | 386 W/m² | - |
| 1777429215 | 13.89° C | 94% | 1018.6 hPa | - | - | 386 W/m² | - |
| 1777428615 | 13.89° C | 94% | 1018.6 hPa | - | - | 388 W/m² | - |
| 1777428005 | 13.89° C | 96% | 1018.6 hPa | - | - | 388 W/m² | - |
| 1777427405 | 13.89° C | 96% | 1018.5 hPa | - | - | 388 W/m² | - |
| 1777426806 | 14.44° C | 93% | 1018.5 hPa | - | - | 389 W/m² | - |
| 1777426205 | 14.44° C | 96% | 1018.5 hPa | - | - | 389 W/m² | - |
| 1777425606 | 13.89° C | 97% | 1018.4 hPa | - | - | 390 W/m² | - |
| 1777425007 | 14.44° C | 93% | 1018.5 hPa | - | - | 390 W/m² | - |
* Rain since midnight (hover to see other rain measurements)
** Current wind speed in m/s (hover to see current wind gust speed)